sensor_id;sensor_type;location;lat;lon;timestamp;P1;durP1;ratioP1;P2;durP2;ratioP2
57337;SDS011;43173;50.980;18.204;2024-03-02T00:01:58;78.40;;;37.80;;
57337;SDS011;43173;50.980;18.204;2024-03-02T00:04:24;86.90;;;40.50;;
57337;SDS011;43173;50.980;18.204;2024-03-02T00:06:51;85.20;;;39.80;;
57337;SDS011;43173;50.980;18.204;2024-03-02T00:09:20;88.60;;;40.20;;
57337;SDS011;43173;50.980;18.204;2024-03-02T00:11:46;82.50;;;38.50;;
57337;SDS011;43173;50.980;18.204;2024-03-02T00:14:11;78.80;;;38.70;;
57337;SDS011;43173;50.980;18.204;2024-03-02T00:16:37;78.70;;;40.20;;
57337;SDS011;43173;50.980;18.204;2024-03-02T00:19:03;87.50;;;41.10;;
57337;SDS011;43173;50.980;18.204;2024-03-02T00:21:30;78.90;;;39.00;;
57337;SDS011;43173;50.980;18.204;2024-03-02T00:23:56;85.30;;;39.40;;
57337;SDS011;43173;50.980;18.204;2024-03-02T00:26:22;81.00;;;39.20;;
57337;SDS011;43173;50.980;18.204;2024-03-02T00:28:48;80.90;;;38.10;;
57337;SDS011;43173;50.980;18.204;2024-03-02T00:31:15;78.40;;;38.90;;
57337;SDS011;43173;50.980;18.204;2024-03-02T00:36:07;71.80;;;37.30;;
57337;SDS011;43173;50.980;18.204;2024-03-02T00:38:34;79.00;;;37.50;;
57337;SDS011;43173;50.980;18.204;2024-03-02T00:41:04;76.80;;;35.80;;
57337;SDS011;43173;50.980;18.204;2024-03-02T00:46:20;74.40;;;36.40;;
57337;SDS011;43173;50.980;18.204;2024-03-02T00:51:30;84.10;;;39.60;;
57337;SDS011;43173;50.980;18.204;2024-03-02T00:54:01;81.60;;;40.50;;
57337;SDS011;43173;50.980;18.204;2024-03-02T00:56:29;75.80;;;37.90;;
57337;SDS011;43173;50.980;18.204;2024-03-02T00:58:55;73.20;;;37.00;;
57337;SDS011;43173;50.980;18.204;2024-03-02T01:01:21;74.40;;;37.40;;
57337;SDS011;43173;50.980;18.204;2024-03-02T01:03:48;77.00;;;35.30;;
57337;SDS011;43173;50.980;18.204;2024-03-02T01:06:17;77.80;;;38.10;;
57337;SDS011;43173;50.980;18.204;2024-03-02T01:08:42;76.60;;;37.60;;
57337;SDS011;43173;50.980;18.204;2024-03-02T01:11:08;70.40;;;35.90;;
57337;SDS011;43173;50.980;18.204;2024-03-02T01:13:34;75.10;;;36.30;;
57337;SDS011;43173;50.980;18.204;2024-03-02T01:15:59;70.90;;;36.00;;
57337;SDS011;43173;50.980;18.204;2024-03-02T01:18:25;77.40;;;37.40;;
57337;SDS011;43173;50.980;18.204;2024-03-02T01:20:51;73.10;;;37.00;;
57337;SDS011;43173;50.980;18.204;2024-03-02T01:23:22;73.30;;;36.20;;
57337;SDS011;43173;50.980;18.204;2024-03-02T01:25:48;78.10;;;36.50;;
57337;SDS011;43173;50.980;18.204;2024-03-02T01:28:14;78.80;;;37.70;;
57337;SDS011;43173;50.980;18.204;2024-03-02T01:30:40;73.90;;;36.20;;
57337;SDS011;43173;50.980;18.204;2024-03-02T01:33:06;79.10;;;37.50;;
57337;SDS011;43173;50.980;18.204;2024-03-02T01:35:32;75.10;;;36.90;;
57337;SDS011;43173;50.980;18.204;2024-03-02T01:37:57;72.10;;;36.00;;
57337;SDS011;43173;50.980;18.204;2024-03-02T01:40:23;74.20;;;37.60;;
57337;SDS011;43173;50.980;18.204;2024-03-02T01:42:52;73.70;;;35.80;;
57337;SDS011;43173;50.980;18.204;2024-03-02T01:45:21;76.40;;;35.80;;
57337;SDS011;43173;50.980;18.204;2024-03-02T01:47:47;76.10;;;36.10;;
57337;SDS011;43173;50.980;18.204;2024-03-02T01:50:12;81.40;;;38.50;;
57337;SDS011;43173;50.980;18.204;2024-03-02T01:52:38;82.20;;;40.70;;
57337;SDS011;43173;50.980;18.204;2024-03-02T01:55:04;74.30;;;35.70;;
57337;SDS011;43173;50.980;18.204;2024-03-02T01:57:31;72.70;;;36.30;;
57337;SDS011;43173;50.980;18.204;2024-03-02T01:59:58;64.50;;;34.70;;
57337;SDS011;43173;50.980;18.204;2024-03-02T02:02:23;69.50;;;35.10;;
57337;SDS011;43173;50.980;18.204;2024-03-02T02:04:49;70.80;;;33.50;;
57337;SDS011;43173;50.980;18.204;2024-03-02T02:07:14;71.60;;;36.10;;
57337;SDS011;43173;50.980;18.204;2024-03-02T02:09:43;70.00;;;36.50;;
57337;SDS011;43173;50.980;18.204;2024-03-02T02:12:11;71.10;;;34.40;;
57337;SDS011;43173;50.980;18.204;2024-03-02T02:14:37;67.70;;;33.20;;
57337;SDS011;43173;50.980;18.204;2024-03-02T02:17:02;73.10;;;34.30;;
57337;SDS011;43173;50.980;18.204;2024-03-02T02:19:28;67.60;;;33.30;;
57337;SDS011;43173;50.980;18.204;2024-03-02T02:21:54;68.40;;;34.70;;
57337;SDS011;43173;50.980;18.204;2024-03-02T02:24:20;66.50;;;32.30;;
57337;SDS011;43173;50.980;18.204;2024-03-02T02:26:45;69.30;;;33.50;;
57337;SDS011;43173;50.980;18.204;2024-03-02T02:29:11;62.70;;;33.30;;
57337;SDS011;43173;50.980;18.204;2024-03-02T02:31:37;66.20;;;32.40;;
57337;SDS011;43173;50.980;18.204;2024-03-02T02:34:06;70.50;;;33.10;;
57337;SDS011;43173;50.980;18.204;2024-03-02T02:36:36;67.80;;;33.80;;
57337;SDS011;43173;50.980;18.204;2024-03-02T02:39:03;70.80;;;35.10;;
57337;SDS011;43173;50.980;18.204;2024-03-02T02:41:29;67.70;;;33.10;;
57337;SDS011;43173;50.980;18.204;2024-03-02T02:43:55;65.90;;;32.80;;
57337;SDS011;43173;50.980;18.204;2024-03-02T02:46:21;65.10;;;32.50;;
57337;SDS011;43173;50.980;18.204;2024-03-02T02:48:46;66.00;;;32.20;;
57337;SDS011;43173;50.980;18.204;2024-03-02T02:51:12;63.10;;;33.50;;
57337;SDS011;43173;50.980;18.204;2024-03-02T02:53:37;62.50;;;32.00;;
57337;SDS011;43173;50.980;18.204;2024-03-02T02:56:06;63.20;;;32.40;;
57337;SDS011;43173;50.980;18.204;2024-03-02T02:58:31;62.10;;;33.00;;
57337;SDS011;43173;50.980;18.204;2024-03-02T03:00:57;63.20;;;32.10;;
57337;SDS011;43173;50.980;18.204;2024-03-02T03:03:22;65.50;;;31.30;;
57337;SDS011;43173;50.980;18.204;2024-03-02T03:05:48;60.60;;;31.00;;
57337;SDS011;43173;50.980;18.204;2024-03-02T03:08:14;61.40;;;31.70;;
57337;SDS011;43173;50.980;18.204;2024-03-02T03:10:41;59.80;;;29.50;;
57337;SDS011;43173;50.980;18.204;2024-03-02T03:13:07;68.20;;;32.00;;
57337;SDS011;43173;50.980;18.204;2024-03-02T03:15:35;68.20;;;33.20;;
57337;SDS011;43173;50.980;18.204;2024-03-02T03:18:04;67.20;;;32.10;;
57337;SDS011;43173;50.980;18.204;2024-03-02T03:20:30;66.90;;;34.50;;
57337;SDS011;43173;50.980;18.204;2024-03-02T03:22:56;70.20;;;34.50;;
57337;SDS011;43173;50.980;18.204;2024-03-02T03:25:22;64.10;;;31.70;;
57337;SDS011;43173;50.980;18.204;2024-03-02T03:27:47;62.20;;;31.30;;
57337;SDS011;43173;50.980;18.204;2024-03-02T03:30:13;61.60;;;31.40;;
57337;SDS011;43173;50.980;18.204;2024-03-02T03:32:39;60.20;;;31.00;;
57337;SDS011;43173;50.980;18.204;2024-03-02T03:35:04;65.60;;;32.80;;
57337;SDS011;43173;50.980;18.204;2024-03-02T03:37:31;59.70;;;31.70;;
57337;SDS011;43173;50.980;18.204;2024-03-02T03:40:01;59.30;;;30.60;;
57337;SDS011;43173;50.980;18.204;2024-03-02T03:42:28;64.90;;;31.90;;
57337;SDS011;43173;50.980;18.204;2024-03-02T03:44:53;66.00;;;34.00;;
57337;SDS011;43173;50.980;18.204;2024-03-02T03:47:19;65.30;;;33.30;;
57337;SDS011;43173;50.980;18.204;2024-03-02T03:49:46;58.30;;;32.00;;
57337;SDS011;43173;50.980;18.204;2024-03-02T03:52:11;70.70;;;35.50;;
57337;SDS011;43173;50.980;18.204;2024-03-02T03:54:37;66.70;;;33.60;;
57337;SDS011;43173;50.980;18.204;2024-03-02T03:57:03;66.70;;;32.10;;
57337;SDS011;43173;50.980;18.204;2024-03-02T03:59:29;63.80;;;34.70;;
57337;SDS011;43173;50.980;18.204;2024-03-02T04:01:55;68.70;;;33.90;;
57337;SDS011;43173;50.980;18.204;2024-03-02T04:04:21;83.80;;;43.20;;
57337;SDS011;43173;50.980;18.204;2024-03-02T04:06:47;63.10;;;33.20;;
57337;SDS011;43173;50.980;18.204;2024-03-02T04:09:12;62.60;;;33.80;;
57337;SDS011;43173;50.980;18.204;2024-03-02T04:11:38;59.00;;;33.00;;
57337;SDS011;43173;50.980;18.204;2024-03-02T04:14:03;64.90;;;32.70;;
57337;SDS011;43173;50.980;18.204;2024-03-02T04:16:31;64.00;;;31.70;;
57337;SDS011;43173;50.980;18.204;2024-03-02T04:18:56;62.30;;;31.10;;
57337;SDS011;43173;50.980;18.204;2024-03-02T04:21:22;62.60;;;30.90;;
57337;SDS011;43173;50.980;18.204;2024-03-02T04:23:48;60.10;;;30.90;;
57337;SDS011;43173;50.980;18.204;2024-03-02T04:26:13;56.40;;;29.30;;
57337;SDS011;43173;50.980;18.204;2024-03-02T04:28:40;59.30;;;31.50;;
57337;SDS011;43173;50.980;18.204;2024-03-02T04:31:05;54.80;;;29.90;;
57337;SDS011;43173;50.980;18.204;2024-03-02T04:33:31;57.80;;;29.70;;
57337;SDS011;43173;50.980;18.204;2024-03-02T04:35:56;62.20;;;32.70;;
57337;SDS011;43173;50.980;18.204;2024-03-02T04:38:23;55.60;;;30.10;;
57337;SDS011;43173;50.980;18.204;2024-03-02T04:40:48;55.80;;;29.70;;
57337;SDS011;43173;50.980;18.204;2024-03-02T04:43:14;58.20;;;29.30;;
57337;SDS011;43173;50.980;18.204;2024-03-02T04:45:41;56.50;;;29.70;;
57337;SDS011;43173;50.980;18.204;2024-03-02T04:48:08;59.10;;;30.40;;
57337;SDS011;43173;50.980;18.204;2024-03-02T04:50:33;58.00;;;28.60;;
57337;SDS011;43173;50.980;18.204;2024-03-02T04:52:59;58.10;;;30.10;;
57337;SDS011;43173;50.980;18.204;2024-03-02T04:55:24;54.20;;;28.30;;
57337;SDS011;43173;50.980;18.204;2024-03-02T04:57:52;55.00;;;29.50;;
57337;SDS011;43173;50.980;18.204;2024-03-02T05:00:20;59.50;;;29.20;;
57337;SDS011;43173;50.980;18.204;2024-03-02T05:02:46;53.60;;;29.50;;
57337;SDS011;43173;50.980;18.204;2024-03-02T05:05:11;57.10;;;30.40;;
57337;SDS011;43173;50.980;18.204;2024-03-02T05:07:37;61.40;;;30.80;;
57337;SDS011;43173;50.980;18.204;2024-03-02T05:10:03;60.80;;;30.90;;
57337;SDS011;43173;50.980;18.204;2024-03-02T05:12:28;60.00;;;29.90;;
57337;SDS011;43173;50.980;18.204;2024-03-02T05:14:57;55.00;;;29.20;;
57337;SDS011;43173;50.980;18.204;2024-03-02T05:17:22;55.60;;;29.80;;
57337;SDS011;43173;50.980;18.204;2024-03-02T05:19:48;60.30;;;29.90;;
57337;SDS011;43173;50.980;18.204;2024-03-02T05:22:13;65.70;;;31.40;;
57337;SDS011;43173;50.980;18.204;2024-03-02T05:24:39;56.60;;;29.40;;
57337;SDS011;43173;50.980;18.204;2024-03-02T05:27:04;61.70;;;29.90;;
57337;SDS011;43173;50.980;18.204;2024-03-02T05:29:31;66.50;;;32.20;;
57337;SDS011;43173;50.980;18.204;2024-03-02T05:31:57;57.20;;;30.50;;
57337;SDS011;43173;50.980;18.204;2024-03-02T05:34:23;62.00;;;30.90;;
57337;SDS011;43173;50.980;18.204;2024-03-02T05:36:48;60.60;;;27.80;;
57337;SDS011;43173;50.980;18.204;2024-03-02T05:39:13;59.50;;;28.90;;
57337;SDS011;43173;50.980;18.204;2024-03-02T05:41:39;56.50;;;30.40;;
57337;SDS011;43173;50.980;18.204;2024-03-02T05:44:05;54.40;;;28.10;;
57337;SDS011;43173;50.980;18.204;2024-03-02T05:46:30;59.80;;;28.60;;
57337;SDS011;43173;50.980;18.204;2024-03-02T05:48:56;53.20;;;27.60;;
57337;SDS011;43173;50.980;18.204;2024-03-02T05:51:21;54.80;;;27.90;;
57337;SDS011;43173;50.980;18.204;2024-03-02T05:53:47;55.20;;;27.30;;
57337;SDS011;43173;50.980;18.204;2024-03-02T05:56:12;54.60;;;28.00;;
57337;SDS011;43173;50.980;18.204;2024-03-02T05:58:38;51.80;;;27.70;;
57337;SDS011;43173;50.980;18.204;2024-03-02T06:01:19;54.90;;;27.80;;
57337;SDS011;43173;50.980;18.204;2024-03-02T06:03:45;94.90;;;41.10;;
57337;SDS011;43173;50.980;18.204;2024-03-02T06:06:10;65.50;;;31.10;;
57337;SDS011;43173;50.980;18.204;2024-03-02T06:08:36;62.40;;;31.70;;
57337;SDS011;43173;50.980;18.204;2024-03-02T06:11:01;62.80;;;31.10;;
57337;SDS011;43173;50.980;18.204;2024-03-02T06:13:27;61.40;;;31.70;;
57337;SDS011;43173;50.980;18.204;2024-03-02T06:15:52;61.00;;;31.10;;
57337;SDS011;43173;50.980;18.204;2024-03-02T06:18:18;62.60;;;33.40;;
57337;SDS011;43173;50.980;18.204;2024-03-02T06:20:44;54.60;;;29.50;;
57337;SDS011;43173;50.980;18.204;2024-03-02T06:23:09;54.20;;;28.80;;
57337;SDS011;43173;50.980;18.204;2024-03-02T06:25:35;51.50;;;27.00;;
57337;SDS011;43173;50.980;18.204;2024-03-02T06:28:00;54.00;;;29.00;;
57337;SDS011;43173;50.980;18.204;2024-03-02T06:30:26;49.90;;;28.60;;
57337;SDS011;43173;50.980;18.204;2024-03-02T06:32:51;52.50;;;27.20;;
57337;SDS011;43173;50.980;18.204;2024-03-02T06:35:17;54.20;;;28.70;;
57337;SDS011;43173;50.980;18.204;2024-03-02T06:37:42;51.90;;;28.10;;
57337;SDS011;43173;50.980;18.204;2024-03-02T06:40:08;50.00;;;27.20;;
57337;SDS011;43173;50.980;18.204;2024-03-02T06:42:34;50.00;;;26.80;;
57337;SDS011;43173;50.980;18.204;2024-03-02T06:45:00;49.70;;;25.60;;
57337;SDS011;43173;50.980;18.204;2024-03-02T06:47:26;49.70;;;25.60;;
57337;SDS011;43173;50.980;18.204;2024-03-02T06:49:51;55.80;;;29.90;;
57337;SDS011;43173;50.980;18.204;2024-03-02T06:52:18;56.30;;;30.20;;
57337;SDS011;43173;50.980;18.204;2024-03-02T06:54:44;56.40;;;28.80;;
57337;SDS011;43173;50.980;18.204;2024-03-02T06:57:09;49.00;;;27.40;;
57337;SDS011;43173;50.980;18.204;2024-03-02T06:59:35;47.30;;;26.70;;
57337;SDS011;43173;50.980;18.204;2024-03-02T07:02:00;55.00;;;28.60;;
57337;SDS011;43173;50.980;18.204;2024-03-02T07:04:27;48.70;;;27.20;;
57337;SDS011;43173;50.980;18.204;2024-03-02T07:06:52;52.30;;;27.20;;
57337;SDS011;43173;50.980;18.204;2024-03-02T07:09:18;46.70;;;24.80;;
57337;SDS011;43173;50.980;18.204;2024-03-02T07:11:47;44.00;;;23.70;;
57337;SDS011;43173;50.980;18.204;2024-03-02T07:14:13;45.40;;;24.40;;
57337;SDS011;43173;50.980;18.204;2024-03-02T07:16:38;39.00;;;23.00;;
57337;SDS011;43173;50.980;18.204;2024-03-02T07:19:06;45.70;;;22.90;;
57337;SDS011;43173;50.980;18.204;2024-03-02T07:21:32;41.30;;;23.10;;
57337;SDS011;43173;50.980;18.204;2024-03-02T07:23:58;45.10;;;24.50;;
57337;SDS011;43173;50.980;18.204;2024-03-02T07:26:24;46.30;;;24.60;;
57337;SDS011;43173;50.980;18.204;2024-03-02T07:28:50;45.00;;;24.10;;
57337;SDS011;43173;50.980;18.204;2024-03-02T07:31:16;48.20;;;26.50;;
57337;SDS011;43173;50.980;18.204;2024-03-02T07:46:11;55.70;;;32.40;;
57337;SDS011;43173;50.980;18.204;2024-03-02T07:48:37;53.10;;;30.50;;
57337;SDS011;43173;50.980;18.204;2024-03-02T07:51:03;48.00;;;28.40;;
57337;SDS011;43173;50.980;18.204;2024-03-02T07:53:29;50.80;;;27.30;;
57337;SDS011;43173;50.980;18.204;2024-03-02T07:55:54;44.70;;;26.30;;
57337;SDS011;43173;50.980;18.204;2024-03-02T07:58:22;44.70;;;25.70;;
57337;SDS011;43173;50.980;18.204;2024-03-02T08:00:47;44.60;;;25.90;;
57337;SDS011;43173;50.980;18.204;2024-03-02T08:03:13;46.20;;;26.70;;
57337;SDS011;43173;50.980;18.204;2024-03-02T08:05:40;47.40;;;25.90;;
57337;SDS011;43173;50.980;18.204;2024-03-02T08:08:05;43.60;;;25.20;;
57337;SDS011;43173;50.980;18.204;2024-03-02T08:10:31;44.70;;;24.50;;
57337;SDS011;43173;50.980;18.204;2024-03-02T08:12:56;42.70;;;24.50;;
57337;SDS011;43173;50.980;18.204;2024-03-02T08:15:22;39.70;;;23.20;;
57337;SDS011;43173;50.980;18.204;2024-03-02T08:17:47;43.70;;;23.20;;
57337;SDS011;43173;50.980;18.204;2024-03-02T08:20:16;39.20;;;22.20;;
57337;SDS011;43173;50.980;18.204;2024-03-02T08:22:41;38.20;;;21.90;;
57337;SDS011;43173;50.980;18.204;2024-03-02T08:25:07;42.80;;;22.40;;
57337;SDS011;43173;50.980;18.204;2024-03-02T08:27:34;35.60;;;21.90;;
57337;SDS011;43173;50.980;18.204;2024-03-02T08:29:59;40.00;;;21.30;;
57337;SDS011;43173;50.980;18.204;2024-03-02T08:32:25;39.00;;;20.80;;
57337;SDS011;43173;50.980;18.204;2024-03-02T08:34:50;40.00;;;22.00;;
57337;SDS011;43173;50.980;18.204;2024-03-02T08:37:16;37.90;;;21.70;;
57337;SDS011;43173;50.980;18.204;2024-03-02T08:39:42;33.10;;;19.80;;
57337;SDS011;43173;50.980;18.204;2024-03-02T08:42:07;33.80;;;19.20;;
57337;SDS011;43173;50.980;18.204;2024-03-02T08:44:33;34.90;;;19.30;;
57337;SDS011;43173;50.980;18.204;2024-03-02T08:46:58;32.60;;;17.60;;
57337;SDS011;43173;50.980;18.204;2024-03-02T08:49:24;29.80;;;17.90;;
57337;SDS011;43173;50.980;18.204;2024-03-02T08:51:50;31.80;;;17.70;;
57337;SDS011;43173;50.980;18.204;2024-03-02T08:54:21;36.30;;;19.00;;
57337;SDS011;43173;50.980;18.204;2024-03-02T08:56:47;33.80;;;18.60;;
57337;SDS011;43173;50.980;18.204;2024-03-02T08:59:13;32.50;;;18.70;;
57337;SDS011;43173;50.980;18.204;2024-03-02T09:01:39;35.50;;;19.30;;
57337;SDS011;43173;50.980;18.204;2024-03-02T09:04:07;33.10;;;19.00;;
57337;SDS011;43173;50.980;18.204;2024-03-02T09:06:35;30.70;;;18.80;;
57337;SDS011;43173;50.980;18.204;2024-03-02T09:09:01;38.40;;;18.90;;
57337;SDS011;43173;50.980;18.204;2024-03-02T09:11:26;38.80;;;20.90;;
57337;SDS011;43173;50.980;18.204;2024-03-02T09:13:52;39.30;;;23.20;;
57337;SDS011;43173;50.980;18.204;2024-03-02T09:16:18;36.50;;;21.70;;
57337;SDS011;43173;50.980;18.204;2024-03-02T09:18:44;34.80;;;19.30;;
57337;SDS011;43173;50.980;18.204;2024-03-02T09:21:10;30.20;;;18.30;;
57337;SDS011;43173;50.980;18.204;2024-03-02T09:23:36;29.40;;;18.50;;
57337;SDS011;43173;50.980;18.204;2024-03-02T09:26:01;33.70;;;20.10;;
57337;SDS011;43173;50.980;18.204;2024-03-02T09:28:28;34.90;;;21.10;;
57337;SDS011;43173;50.980;18.204;2024-03-02T09:30:53;31.70;;;18.50;;
57337;SDS011;43173;50.980;18.204;2024-03-02T09:33:19;29.50;;;17.40;;
57337;SDS011;43173;50.980;18.204;2024-03-02T09:35:44;31.70;;;18.10;;
57337;SDS011;43173;50.980;18.204;2024-03-02T09:38:11;35.90;;;17.90;;
57337;SDS011;43173;50.980;18.204;2024-03-02T09:40:36;31.00;;;17.80;;
57337;SDS011;43173;50.980;18.204;2024-03-02T09:43:02;32.00;;;18.10;;
57337;SDS011;43173;50.980;18.204;2024-03-02T09:45:28;25.50;;;16.30;;
57337;SDS011;43173;50.980;18.204;2024-03-02T09:47:54;26.90;;;16.20;;
57337;SDS011;43173;50.980;18.204;2024-03-02T09:50:20;27.40;;;15.60;;
57337;SDS011;43173;50.980;18.204;2024-03-02T09:52:48;26.10;;;15.70;;
57337;SDS011;43173;50.980;18.204;2024-03-02T09:55:15;26.10;;;15.50;;
57337;SDS011;43173;50.980;18.204;2024-03-02T09:57:43;27.30;;;16.70;;
57337;SDS011;43173;50.980;18.204;2024-03-02T10:00:09;30.60;;;15.80;;
57337;SDS011;43173;50.980;18.204;2024-03-02T10:02:43;30.00;;;17.40;;
57337;SDS011;43173;50.980;18.204;2024-03-02T10:05:09;27.90;;;15.40;;
57337;SDS011;43173;50.980;18.204;2024-03-02T10:07:35;22.70;;;14.60;;
57337;SDS011;43173;50.980;18.204;2024-03-02T10:10:12;26.50;;;14.60;;
57337;SDS011;43173;50.980;18.204;2024-03-02T10:12:38;23.60;;;14.10;;
57337;SDS011;43173;50.980;18.204;2024-03-02T10:15:04;26.10;;;14.10;;
57337;SDS011;43173;50.980;18.204;2024-03-02T10:17:31;23.00;;;12.90;;
57337;SDS011;43173;50.980;18.204;2024-03-02T10:19:56;22.00;;;12.80;;
57337;SDS011;43173;50.980;18.204;2024-03-02T10:22:22;23.30;;;13.20;;
57337;SDS011;43173;50.980;18.204;2024-03-02T10:24:48;21.50;;;13.00;;
57337;SDS011;43173;50.980;18.204;2024-03-02T10:27:15;24.30;;;16.40;;
57337;SDS011;43173;50.980;18.204;2024-03-02T10:29:41;26.20;;;13.40;;
57337;SDS011;43173;50.980;18.204;2024-03-02T10:32:10;20.20;;;13.10;;
57337;SDS011;43173;50.980;18.204;2024-03-02T10:34:37;20.50;;;12.90;;
57337;SDS011;43173;50.980;18.204;2024-03-02T10:37:03;23.90;;;14.30;;
57337;SDS011;43173;50.980;18.204;2024-03-02T10:39:28;25.00;;;14.10;;
57337;SDS011;43173;50.980;18.204;2024-03-02T10:41:55;21.60;;;14.00;;
57337;SDS011;43173;50.980;18.204;2024-03-02T10:44:21;20.50;;;13.70;;
57337;SDS011;43173;50.980;18.204;2024-03-02T10:46:47;20.80;;;13.60;;
57337;SDS011;43173;50.980;18.204;2024-03-02T10:49:15;21.50;;;14.00;;
57337;SDS011;43173;50.980;18.204;2024-03-02T10:51:40;24.80;;;14.90;;
57337;SDS011;43173;50.980;18.204;2024-03-02T10:54:05;17.00;;;12.80;;
57337;SDS011;43173;50.980;18.204;2024-03-02T10:56:38;18.90;;;12.40;;
57337;SDS011;43173;50.980;18.204;2024-03-02T11:01:36;20.30;;;12.10;;
57337;SDS011;43173;50.980;18.204;2024-03-02T11:04:04;32.30;;;17.00;;
57337;SDS011;43173;50.980;18.204;2024-03-02T11:06:33;26.70;;;15.70;;
57337;SDS011;43173;50.980;18.204;2024-03-02T11:09:07;27.60;;;16.00;;
57337;SDS011;43173;50.980;18.204;2024-03-02T11:11:37;27.00;;;14.50;;
57337;SDS011;43173;50.980;18.204;2024-03-02T11:14:07;18.70;;;12.80;;
57337;SDS011;43173;50.980;18.204;2024-03-02T11:16:38;23.70;;;13.70;;
57337;SDS011;43173;50.980;18.204;2024-03-02T11:19:11;22.40;;;14.20;;
57337;SDS011;43173;50.980;18.204;2024-03-02T11:21:37;24.20;;;13.60;;
57337;SDS011;43173;50.980;18.204;2024-03-02T11:27:04;23.80;;;14.40;;
57337;SDS011;43173;50.980;18.204;2024-03-02T11:32:05;23.00;;;13.80;;
57337;SDS011;43173;50.980;18.204;2024-03-02T11:34:41;17.60;;;11.70;;
57337;SDS011;43173;50.980;18.204;2024-03-02T11:37:12;19.00;;;10.90;;
57337;SDS011;43173;50.980;18.204;2024-03-02T11:39:39;15.10;;;10.60;;
57337;SDS011;43173;50.980;18.204;2024-03-02T11:42:05;18.60;;;10.50;;
57337;SDS011;43173;50.980;18.204;2024-03-02T11:44:32;16.30;;;10.50;;
57337;SDS011;43173;50.980;18.204;2024-03-02T11:46:58;19.10;;;11.20;;
57337;SDS011;43173;50.980;18.204;2024-03-02T11:49:45;17.80;;;11.50;;
57337;SDS011;43173;50.980;18.204;2024-03-02T11:52:19;17.90;;;11.10;;
57337;SDS011;43173;50.980;18.204;2024-03-02T11:54:46;19.30;;;11.30;;
57337;SDS011;43173;50.980;18.204;2024-03-02T11:57:13;21.70;;;12.30;;
57337;SDS011;43173;50.980;18.204;2024-03-02T11:59:40;20.80;;;11.70;;
57337;SDS011;43173;50.980;18.204;2024-03-02T12:02:06;19.90;;;12.00;;
57337;SDS011;43173;50.980;18.204;2024-03-02T12:04:31;23.70;;;12.40;;
57337;SDS011;43173;50.980;18.204;2024-03-02T12:07:00;29.70;;;16.80;;
57337;SDS011;43173;50.980;18.204;2024-03-02T12:21:11;21.10;;;13.10;;
57337;SDS011;43173;50.980;18.204;2024-03-02T12:23:37;21.90;;;13.10;;
57337;SDS011;43173;50.980;18.204;2024-03-02T12:26:03;22.00;;;13.70;;
57337;SDS011;43173;50.980;18.204;2024-03-02T12:28:29;24.30;;;13.20;;
57337;SDS011;43173;50.980;18.204;2024-03-02T12:30:54;19.30;;;12.30;;
57337;SDS011;43173;50.980;18.204;2024-03-02T12:33:20;17.90;;;11.30;;
57337;SDS011;43173;50.980;18.204;2024-03-02T12:35:46;17.30;;;11.40;;
57337;SDS011;43173;50.980;18.204;2024-03-02T12:38:12;18.70;;;11.70;;
57337;SDS011;43173;50.980;18.204;2024-03-02T12:40:38;17.90;;;11.80;;
57337;SDS011;43173;50.980;18.204;2024-03-02T12:43:04;24.30;;;13.20;;
57337;SDS011;43173;50.980;18.204;2024-03-02T12:45:30;21.40;;;14.00;;
57337;SDS011;43173;50.980;18.204;2024-03-02T12:47:59;24.30;;;14.40;;
57337;SDS011;43173;50.980;18.204;2024-03-02T12:50:25;23.30;;;14.20;;
57337;SDS011;43173;50.980;18.204;2024-03-02T12:52:54;27.20;;;16.30;;
57337;SDS011;43173;50.980;18.204;2024-03-02T12:55:20;35.50;;;20.10;;
57337;SDS011;43173;50.980;18.204;2024-03-02T12:57:47;34.40;;;18.50;;
57337;SDS011;43173;50.980;18.204;2024-03-02T13:00:13;31.40;;;18.50;;
57337;SDS011;43173;50.980;18.204;2024-03-02T13:02:39;27.90;;;16.60;;
57337;SDS011;43173;50.980;18.204;2024-03-02T13:05:06;29.90;;;16.20;;
57337;SDS011;43173;50.980;18.204;2024-03-02T13:07:36;26.70;;;15.90;;
57337;SDS011;43173;50.980;18.204;2024-03-02T13:10:02;23.30;;;14.90;;
57337;SDS011;43173;50.980;18.204;2024-03-02T13:12:28;29.90;;;16.60;;
57337;SDS011;43173;50.980;18.204;2024-03-02T13:14:55;31.80;;;18.30;;
57337;SDS011;43173;50.980;18.204;2024-03-02T13:17:23;48.40;;;24.90;;
57337;SDS011;43173;50.980;18.204;2024-03-02T13:19:52;32.40;;;19.00;;
57337;SDS011;43173;50.980;18.204;2024-03-02T13:22:22;31.80;;;17.90;;
57337;SDS011;43173;50.980;18.204;2024-03-02T13:24:49;27.10;;;16.40;;
57337;SDS011;43173;50.980;18.204;2024-03-02T13:27:15;38.30;;;22.50;;
57337;SDS011;43173;50.980;18.204;2024-03-02T13:29:41;44.00;;;22.50;;
57337;SDS011;43173;50.980;18.204;2024-03-02T13:32:07;29.00;;;17.90;;
57337;SDS011;43173;50.980;18.204;2024-03-02T13:34:35;37.20;;;18.70;;
57337;SDS011;43173;50.980;18.204;2024-03-02T13:37:01;41.60;;;19.00;;
57337;SDS011;43173;50.980;18.204;2024-03-02T13:39:27;29.00;;;17.20;;
57337;SDS011;43173;50.980;18.204;2024-03-02T13:41:57;33.60;;;17.40;;
57337;SDS011;43173;50.980;18.204;2024-03-02T13:44:29;48.40;;;21.80;;
57337;SDS011;43173;50.980;18.204;2024-03-02T13:46:55;37.60;;;18.60;;
57337;SDS011;43173;50.980;18.204;2024-03-02T13:49:21;33.40;;;18.20;;
57337;SDS011;43173;50.980;18.204;2024-03-02T13:51:48;40.50;;;20.90;;
57337;SDS011;43173;50.980;18.204;2024-03-02T13:54:14;29.90;;;17.70;;
57337;SDS011;43173;50.980;18.204;2024-03-02T13:56:39;31.60;;;18.10;;
57337;SDS011;43173;50.980;18.204;2024-03-02T13:59:06;32.50;;;19.10;;
57337;SDS011;43173;50.980;18.204;2024-03-02T14:01:32;53.30;;;24.70;;
57337;SDS011;43173;50.980;18.204;2024-03-02T14:03:58;31.10;;;19.40;;
57337;SDS011;43173;50.980;18.204;2024-03-02T14:06:24;50.50;;;24.10;;
57337;SDS011;43173;50.980;18.204;2024-03-02T14:08:52;35.00;;;19.10;;
57337;SDS011;43173;50.980;18.204;2024-03-02T14:11:18;31.50;;;18.00;;
57337;SDS011;43173;50.980;18.204;2024-03-02T14:13:44;30.40;;;17.40;;
57337;SDS011;43173;50.980;18.204;2024-03-02T14:16:15;27.20;;;17.20;;
57337;SDS011;43173;50.980;18.204;2024-03-02T14:18:40;29.70;;;17.00;;
57337;SDS011;43173;50.980;18.204;2024-03-02T14:21:07;32.00;;;17.50;;
57337;SDS011;43173;50.980;18.204;2024-03-02T14:23:33;32.40;;;16.50;;
57337;SDS011;43173;50.980;18.204;2024-03-02T14:25:58;30.50;;;17.50;;
57337;SDS011;43173;50.980;18.204;2024-03-02T14:28:24;30.80;;;17.30;;
57337;SDS011;43173;50.980;18.204;2024-03-02T14:30:50;28.80;;;17.20;;
57337;SDS011;43173;50.980;18.204;2024-03-02T14:33:15;32.70;;;17.10;;
57337;SDS011;43173;50.980;18.204;2024-03-02T14:35:42;31.80;;;17.60;;
57337;SDS011;43173;50.980;18.204;2024-03-02T14:38:08;35.70;;;18.10;;
57337;SDS011;43173;50.980;18.204;2024-03-02T14:40:33;33.30;;;18.80;;
57337;SDS011;43173;50.980;18.204;2024-03-02T14:42:59;33.20;;;16.80;;
57337;SDS011;43173;50.980;18.204;2024-03-02T14:45:24;34.30;;;19.00;;